sensor_id;sensor_type;location;lat;lon;timestamp;temperature;humidity
44723;DHT22;30451;48.638;10.624;2024-03-07T00:00:04;20.20;56.00
44723;DHT22;30451;48.638;10.624;2024-03-07T00:02:32;20.20;55.90
44723;DHT22;30451;48.638;10.624;2024-03-07T00:04:59;20.20;55.90
44723;DHT22;30451;48.638;10.624;2024-03-07T00:07:24;20.20;55.90
44723;DHT22;30451;48.638;10.624;2024-03-07T00:09:50;20.10;55.80
44723;DHT22;30451;48.638;10.624;2024-03-07T00:12:19;20.20;55.80
44723;DHT22;30451;48.638;10.624;2024-03-07T00:14:44;20.20;55.80
44723;DHT22;30451;48.638;10.624;2024-03-07T00:17:11;20.20;55.80
44723;DHT22;30451;48.638;10.624;2024-03-07T00:19:36;20.20;55.80
44723;DHT22;30451;48.638;10.624;2024-03-07T00:22:02;20.20;55.80
44723;DHT22;30451;48.638;10.624;2024-03-07T00:24:27;20.20;55.70
44723;DHT22;30451;48.638;10.624;2024-03-07T00:26:53;20.20;55.80
44723;DHT22;30451;48.638;10.624;2024-03-07T00:29:19;20.10;55.70
44723;DHT22;30451;48.638;10.624;2024-03-07T00:31:46;20.10;55.70
44723;DHT22;30451;48.638;10.624;2024-03-07T00:34:15;20.20;55.70
44723;DHT22;30451;48.638;10.624;2024-03-07T00:36:42;20.10;55.60
44723;DHT22;30451;48.638;10.624;2024-03-07T00:39:08;20.10;55.70
44723;DHT22;30451;48.638;10.624;2024-03-07T00:41:40;20.10;55.80
44723;DHT22;30451;48.638;10.624;2024-03-07T00:44:09;20.10;55.60
44723;DHT22;30451;48.638;10.624;2024-03-07T00:46:36;20.10;56.20
44723;DHT22;30451;48.638;10.624;2024-03-07T00:49:02;20.10;55.70
44723;DHT22;30451;48.638;10.624;2024-03-07T00:51:28;20.10;55.60
44723;DHT22;30451;48.638;10.624;2024-03-07T00:53:53;20.10;55.60
44723;DHT22;30451;48.638;10.624;2024-03-07T00:56:20;20.10;55.70
44723;DHT22;30451;48.638;10.624;2024-03-07T00:58:48;20.10;55.60
44723;DHT22;30451;48.638;10.624;2024-03-07T01:01:13;20.10;55.70
44723;DHT22;30451;48.638;10.624;2024-03-07T01:03:40;20.10;55.60
44723;DHT22;30451;48.638;10.624;2024-03-07T01:06:06;20.10;55.60
44723;DHT22;30451;48.638;10.624;2024-03-07T01:08:32;20.10;55.70
44723;DHT22;30451;48.638;10.624;2024-03-07T01:10:58;20.10;55.60
44723;DHT22;30451;48.638;10.624;2024-03-07T01:13:24;20.10;55.60
44723;DHT22;30451;48.638;10.624;2024-03-07T01:15:50;20.00;55.60
44723;DHT22;30451;48.638;10.624;2024-03-07T01:18:16;20.00;55.60
44723;DHT22;30451;48.638;10.624;2024-03-07T01:20:42;20.00;55.50
44723;DHT22;30451;48.638;10.624;2024-03-07T01:23:08;20.00;56.10
44723;DHT22;30451;48.638;10.624;2024-03-07T01:25:34;20.10;55.60
44723;DHT22;30451;48.638;10.624;2024-03-07T01:28:02;20.00;55.50
44723;DHT22;30451;48.638;10.624;2024-03-07T01:30:29;20.00;55.50
44723;DHT22;30451;48.638;10.624;2024-03-07T01:32:55;20.00;56.00
44723;DHT22;30451;48.638;10.624;2024-03-07T01:35:21;20.00;55.50
44723;DHT22;30451;48.638;10.624;2024-03-07T01:37:46;20.00;55.50
44723;DHT22;30451;48.638;10.624;2024-03-07T01:40:12;20.00;55.50
44723;DHT22;30451;48.638;10.624;2024-03-07T01:42:40;20.00;55.50
44723;DHT22;30451;48.638;10.624;2024-03-07T01:45:06;20.00;55.50
44723;DHT22;30451;48.638;10.624;2024-03-07T01:47:34;20.00;55.50
44723;DHT22;30451;48.638;10.624;2024-03-07T01:50:00;20.00;55.50
44723;DHT22;30451;48.638;10.624;2024-03-07T01:52:26;20.00;55.50
44723;DHT22;30451;48.638;10.624;2024-03-07T01:54:52;20.00;55.50
44723;DHT22;30451;48.638;10.624;2024-03-07T01:57:18;20.00;55.40
44723;DHT22;30451;48.638;10.624;2024-03-07T01:59:44;20.00;55.50
44723;DHT22;30451;48.638;10.624;2024-03-07T02:02:10;20.00;55.40
44723;DHT22;30451;48.638;10.624;2024-03-07T02:04:36;20.00;55.50
44723;DHT22;30451;48.638;10.624;2024-03-07T02:07:01;20.00;55.40
44723;DHT22;30451;48.638;10.624;2024-03-07T02:09:27;20.00;55.40
44723;DHT22;30451;48.638;10.624;2024-03-07T02:11:53;19.90;55.30
44723;DHT22;30451;48.638;10.624;2024-03-07T02:14:18;20.00;55.40
44723;DHT22;30451;48.638;10.624;2024-03-07T02:16:44;20.00;55.40
44723;DHT22;30451;48.638;10.624;2024-03-07T02:19:14;19.90;55.30
44723;DHT22;30451;48.638;10.624;2024-03-07T02:21:40;20.00;55.40
44723;DHT22;30451;48.638;10.624;2024-03-07T02:24:06;20.00;55.30
44723;DHT22;30451;48.638;10.624;2024-03-07T02:26:32;19.90;55.30
44723;DHT22;30451;48.638;10.624;2024-03-07T02:28:58;20.00;55.30
44723;DHT22;30451;48.638;10.624;2024-03-07T02:31:23;19.90;55.30
44723;DHT22;30451;48.638;10.624;2024-03-07T02:34:01;20.00;55.30
44723;DHT22;30451;48.638;10.624;2024-03-07T02:36:28;19.90;55.20
44723;DHT22;30451;48.638;10.624;2024-03-07T02:38:54;19.90;55.20
44723;DHT22;30451;48.638;10.624;2024-03-07T02:41:19;19.90;55.20
44723;DHT22;30451;48.638;10.624;2024-03-07T02:43:46;19.90;55.20
44723;DHT22;30451;48.638;10.624;2024-03-07T02:46:11;19.90;55.20
44723;DHT22;30451;48.638;10.624;2024-03-07T02:48:38;19.90;55.20
44723;DHT22;30451;48.638;10.624;2024-03-07T02:51:04;19.90;55.20
44723;DHT22;30451;48.638;10.624;2024-03-07T02:53:31;19.90;55.20
44723;DHT22;30451;48.638;10.624;2024-03-07T02:55:58;19.90;55.20
44723;DHT22;30451;48.638;10.624;2024-03-07T02:58:24;19.90;55.20
44723;DHT22;30451;48.638;10.624;2024-03-07T03:00:58;19.90;55.20
44723;DHT22;30451;48.638;10.624;2024-03-07T03:03:28;19.90;55.20
44723;DHT22;30451;48.638;10.624;2024-03-07T03:05:57;19.90;55.20
44723;DHT22;30451;48.638;10.624;2024-03-07T03:08:23;19.90;55.20
44723;DHT22;30451;48.638;10.624;2024-03-07T03:10:49;19.90;55.20
44723;DHT22;30451;48.638;10.624;2024-03-07T03:13:18;19.90;55.20
44723;DHT22;30451;48.638;10.624;2024-03-07T03:15:44;19.90;55.20
44723;DHT22;30451;48.638;10.624;2024-03-07T03:18:09;19.90;55.20
44723;DHT22;30451;48.638;10.624;2024-03-07T03:20:35;19.90;55.20
44723;DHT22;30451;48.638;10.624;2024-03-07T03:23:05;19.90;55.20
44723;DHT22;30451;48.638;10.624;2024-03-07T03:25:34;19.80;55.10
44723;DHT22;30451;48.638;10.624;2024-03-07T03:28:01;19.80;55.10
44723;DHT22;30451;48.638;10.624;2024-03-07T03:30:29;19.80;55.10
44723;DHT22;30451;48.638;10.624;2024-03-07T03:32:54;19.80;55.10
44723;DHT22;30451;48.638;10.624;2024-03-07T03:35:20;19.80;55.10
44723;DHT22;30451;48.638;10.624;2024-03-07T03:37:46;19.80;55.10
44723;DHT22;30451;48.638;10.624;2024-03-07T03:40:12;19.80;55.10
44723;DHT22;30451;48.638;10.624;2024-03-07T03:42:39;19.80;55.10
44723;DHT22;30451;48.638;10.624;2024-03-07T03:45:05;19.90;55.10
44723;DHT22;30451;48.638;10.624;2024-03-07T03:47:36;19.80;55.10
44723;DHT22;30451;48.638;10.624;2024-03-07T03:50:06;19.80;55.60
44723;DHT22;30451;48.638;10.624;2024-03-07T03:52:32;19.80;55.10
44723;DHT22;30451;48.638;10.624;2024-03-07T03:55:02;19.80;55.10
44723;DHT22;30451;48.638;10.624;2024-03-07T03:57:29;19.80;55.10
44723;DHT22;30451;48.638;10.624;2024-03-07T03:59:56;19.80;55.10
44723;DHT22;30451;48.638;10.624;2024-03-07T04:02:24;19.80;55.10
44723;DHT22;30451;48.638;10.624;2024-03-07T04:04:51;19.80;55.10
44723;DHT22;30451;48.638;10.624;2024-03-07T04:07:18;19.80;55.10
44723;DHT22;30451;48.638;10.624;2024-03-07T04:09:44;19.80;55.60
44723;DHT22;30451;48.638;10.624;2024-03-07T04:12:10;19.80;55.10
44723;DHT22;30451;48.638;10.624;2024-03-07T04:14:43;19.80;55.10
44723;DHT22;30451;48.638;10.624;2024-03-07T04:17:09;19.80;55.10
44723;DHT22;30451;48.638;10.624;2024-03-07T04:19:41;19.80;55.10
44723;DHT22;30451;48.638;10.624;2024-03-07T04:22:08;19.80;55.10
44723;DHT22;30451;48.638;10.624;2024-03-07T04:24:35;19.80;55.10
44723;DHT22;30451;48.638;10.624;2024-03-07T04:27:04;19.80;55.10
44723;DHT22;30451;48.638;10.624;2024-03-07T04:29:31;19.80;55.10
44723;DHT22;30451;48.638;10.624;2024-03-07T04:31:58;19.80;55.20
44723;DHT22;30451;48.638;10.624;2024-03-07T04:34:23;19.70;55.10
44723;DHT22;30451;48.638;10.624;2024-03-07T04:36:49;19.80;55.10
44723;DHT22;30451;48.638;10.624;2024-03-07T04:39:15;19.70;55.10
44723;DHT22;30451;48.638;10.624;2024-03-07T04:42:02;19.70;55.60
44723;DHT22;30451;48.638;10.624;2024-03-07T04:44:29;19.70;55.10
44723;DHT22;30451;48.638;10.624;2024-03-07T04:46:55;19.70;55.10
44723;DHT22;30451;48.638;10.624;2024-03-07T04:49:22;19.70;55.10
44723;DHT22;30451;48.638;10.624;2024-03-07T04:51:51;19.70;55.10
44723;DHT22;30451;48.638;10.624;2024-03-07T04:54:18;19.70;55.10
44723;DHT22;30451;48.638;10.624;2024-03-07T04:56:45;19.70;55.10
44723;DHT22;30451;48.638;10.624;2024-03-07T04:59:11;19.70;55.10
44723;DHT22;30451;48.638;10.624;2024-03-07T05:01:37;19.70;55.10
44723;DHT22;30451;48.638;10.624;2024-03-07T05:04:04;19.70;55.10
44723;DHT22;30451;48.638;10.624;2024-03-07T05:06:29;19.70;55.20
44723;DHT22;30451;48.638;10.624;2024-03-07T05:08:59;19.70;55.10
44723;DHT22;30451;48.638;10.624;2024-03-07T05:11:25;19.70;55.20
44723;DHT22;30451;48.638;10.624;2024-03-07T05:13:51;19.70;55.20
44723;DHT22;30451;48.638;10.624;2024-03-07T05:16:17;19.60;55.20
44723;DHT22;30451;48.638;10.624;2024-03-07T05:18:43;19.70;55.20
44723;DHT22;30451;48.638;10.624;2024-03-07T05:21:08;19.70;55.30
44723;DHT22;30451;48.638;10.624;2024-03-07T05:23:53;19.70;55.20
44723;DHT22;30451;48.638;10.624;2024-03-07T05:26:18;19.70;55.20
44723;DHT22;30451;48.638;10.624;2024-03-07T05:28:44;19.70;55.30
44723;DHT22;30451;48.638;10.624;2024-03-07T05:31:10;19.70;55.30
44723;DHT22;30451;48.638;10.624;2024-03-07T05:33:38;19.60;55.20
44723;DHT22;30451;48.638;10.624;2024-03-07T05:36:04;19.60;55.20
44723;DHT22;30451;48.638;10.624;2024-03-07T05:38:41;19.70;55.30
44723;DHT22;30451;48.638;10.624;2024-03-07T05:41:10;19.70;55.30
44723;DHT22;30451;48.638;10.624;2024-03-07T05:43:40;19.70;55.30
44723;DHT22;30451;48.638;10.624;2024-03-07T05:46:06;19.70;55.30
44723;DHT22;30451;48.638;10.624;2024-03-07T05:48:33;19.70;55.30
44723;DHT22;30451;48.638;10.624;2024-03-07T05:50:59;19.60;55.30
44723;DHT22;30451;48.638;10.624;2024-03-07T05:53:25;19.70;55.30
44723;DHT22;30451;48.638;10.624;2024-03-07T05:55:51;19.70;55.40
44723;DHT22;30451;48.638;10.624;2024-03-07T05:58:17;19.70;55.40
44723;DHT22;30451;48.638;10.624;2024-03-07T06:00:46;19.70;55.40
44723;DHT22;30451;48.638;10.624;2024-03-07T06:03:16;19.70;55.40
44723;DHT22;30451;48.638;10.624;2024-03-07T06:05:43;19.70;55.50
44723;DHT22;30451;48.638;10.624;2024-03-07T06:08:09;19.60;55.60
44723;DHT22;30451;48.638;10.624;2024-03-07T06:10:35;19.60;55.70
44723;DHT22;30451;48.638;10.624;2024-03-07T06:13:00;19.70;55.80
44723;DHT22;30451;48.638;10.624;2024-03-07T06:15:26;19.60;55.80
44723;DHT22;30451;48.638;10.624;2024-03-07T06:17:51;19.70;55.90
44723;DHT22;30451;48.638;10.624;2024-03-07T06:20:17;19.70;56.00
44723;DHT22;30451;48.638;10.624;2024-03-07T06:22:50;19.70;56.00
44723;DHT22;30451;48.638;10.624;2024-03-07T06:25:17;19.70;56.10
44723;DHT22;30451;48.638;10.624;2024-03-07T06:27:46;19.70;56.10
44723;DHT22;30451;48.638;10.624;2024-03-07T06:30:15;19.70;56.20
44723;DHT22;30451;48.638;10.624;2024-03-07T06:32:43;19.70;56.70
44723;DHT22;30451;48.638;10.624;2024-03-07T06:35:09;19.70;56.10
44723;DHT22;30451;48.638;10.624;2024-03-07T06:37:38;19.70;56.50
44723;DHT22;30451;48.638;10.624;2024-03-07T06:40:05;19.70;56.40
44723;DHT22;30451;48.638;10.624;2024-03-07T06:42:35;19.70;56.80
44723;DHT22;30451;48.638;10.624;2024-03-07T06:45:03;19.70;56.80
44723;DHT22;30451;48.638;10.624;2024-03-07T06:47:29;19.70;57.00
44723;DHT22;30451;48.638;10.624;2024-03-07T06:49:54;19.80;57.20
44723;DHT22;30451;48.638;10.624;2024-03-07T06:52:21;19.80;57.20
44723;DHT22;30451;48.638;10.624;2024-03-07T06:54:47;19.80;57.10
44723;DHT22;30451;48.638;10.624;2024-03-07T06:57:13;19.80;57.20
44723;DHT22;30451;48.638;10.624;2024-03-07T06:59:38;19.80;57.10
44723;DHT22;30451;48.638;10.624;2024-03-07T07:02:04;19.80;56.90
44723;DHT22;30451;48.638;10.624;2024-03-07T07:04:30;19.80;56.90
44723;DHT22;30451;48.638;10.624;2024-03-07T07:07:10;19.90;56.80
44723;DHT22;30451;48.638;10.624;2024-03-07T07:09:38;19.90;56.90
44723;DHT22;30451;48.638;10.624;2024-03-07T07:12:04;19.90;56.70
44723;DHT22;30451;48.638;10.624;2024-03-07T07:14:29;19.90;56.80
44723;DHT22;30451;48.638;10.624;2024-03-07T07:16:55;20.00;56.70
44723;DHT22;30451;48.638;10.624;2024-03-07T07:19:27;20.00;56.70
44723;DHT22;30451;48.638;10.624;2024-03-07T07:21:53;20.00;56.70
44723;DHT22;30451;48.638;10.624;2024-03-07T07:24:22;20.00;56.70
44723;DHT22;30451;48.638;10.624;2024-03-07T07:26:52;20.00;56.60
44723;DHT22;30451;48.638;10.624;2024-03-07T07:29:17;20.00;56.60
44723;DHT22;30451;48.638;10.624;2024-03-07T07:31:43;20.00;56.70
44723;DHT22;30451;48.638;10.624;2024-03-07T07:34:10;20.00;56.50
44723;DHT22;30451;48.638;10.624;2024-03-07T07:36:36;20.00;56.50
44723;DHT22;30451;48.638;10.624;2024-03-07T07:39:02;20.10;56.50
44723;DHT22;30451;48.638;10.624;2024-03-07T07:41:28;20.10;56.50
44723;DHT22;30451;48.638;10.624;2024-03-07T07:43:56;20.10;56.50
44723;DHT22;30451;48.638;10.624;2024-03-07T07:46:22;20.10;56.70
44723;DHT22;30451;48.638;10.624;2024-03-07T07:48:48;20.10;56.70
44723;DHT22;30451;48.638;10.624;2024-03-07T07:51:14;20.10;56.60
44723;DHT22;30451;48.638;10.624;2024-03-07T07:53:39;20.10;56.70
44723;DHT22;30451;48.638;10.624;2024-03-07T07:56:05;20.20;56.90
44723;DHT22;30451;48.638;10.624;2024-03-07T07:58:32;20.20;56.70
44723;DHT22;30451;48.638;10.624;2024-03-07T08:00:58;20.20;56.80
44723;DHT22;30451;48.638;10.624;2024-03-07T08:03:24;20.20;56.60
44723;DHT22;30451;48.638;10.624;2024-03-07T08:05:49;20.20;56.90
44723;DHT22;30451;48.638;10.624;2024-03-07T08:08:15;20.20;57.20
44723;DHT22;30451;48.638;10.624;2024-03-07T08:10:42;20.30;57.30
44723;DHT22;30451;48.638;10.624;2024-03-07T08:13:08;20.30;57.30
44723;DHT22;30451;48.638;10.624;2024-03-07T08:15:36;20.30;57.10
44723;DHT22;30451;48.638;10.624;2024-03-07T08:18:01;20.30;57.10
44723;DHT22;30451;48.638;10.624;2024-03-07T08:20:28;20.40;56.90
44723;DHT22;30451;48.638;10.624;2024-03-07T08:22:55;20.40;56.80
44723;DHT22;30451;48.638;10.624;2024-03-07T08:25:25;20.40;56.90
44723;DHT22;30451;48.638;10.624;2024-03-07T08:27:52;20.40;56.60
44723;DHT22;30451;48.638;10.624;2024-03-07T08:30:18;20.40;56.60
44723;DHT22;30451;48.638;10.624;2024-03-07T08:32:46;20.40;56.70
44723;DHT22;30451;48.638;10.624;2024-03-07T08:35:12;20.40;56.60
44723;DHT22;30451;48.638;10.624;2024-03-07T08:37:39;20.50;56.60
44723;DHT22;30451;48.638;10.624;2024-03-07T08:40:07;20.40;56.50
44723;DHT22;30451;48.638;10.624;2024-03-07T08:42:36;20.50;56.50
44723;DHT22;30451;48.638;10.624;2024-03-07T08:45:02;20.50;56.40
44723;DHT22;30451;48.638;10.624;2024-03-07T08:47:34;20.50;56.30
44723;DHT22;30451;48.638;10.624;2024-03-07T08:50:01;20.50;56.20
44723;DHT22;30451;48.638;10.624;2024-03-07T08:52:27;20.50;56.20
44723;DHT22;30451;48.638;10.624;2024-03-07T08:54:53;20.50;56.10
44723;DHT22;30451;48.638;10.624;2024-03-07T08:57:19;20.50;56.10
44723;DHT22;30451;48.638;10.624;2024-03-07T08:59:47;20.50;56.10
44723;DHT22;30451;48.638;10.624;2024-03-07T09:02:14;20.50;56.10
44723;DHT22;30451;48.638;10.624;2024-03-07T09:04:40;20.60;56.10
44723;DHT22;30451;48.638;10.624;2024-03-07T09:07:06;20.60;56.50
44723;DHT22;30451;48.638;10.624;2024-03-07T09:09:35;20.60;55.90
44723;DHT22;30451;48.638;10.624;2024-03-07T09:12:01;20.60;55.80
44723;DHT22;30451;48.638;10.624;2024-03-07T09:14:28;20.60;55.70
44723;DHT22;30451;48.638;10.624;2024-03-07T09:16:54;20.60;55.70
44723;DHT22;30451;48.638;10.624;2024-03-07T09:19:19;20.60;55.70
44723;DHT22;30451;48.638;10.624;2024-03-07T09:21:52;20.60;55.70
44723;DHT22;30451;48.638;10.624;2024-03-07T09:24:19;20.60;55.60
44723;DHT22;30451;48.638;10.624;2024-03-07T09:26:49;20.60;55.50
44723;DHT22;30451;48.638;10.624;2024-03-07T09:29:15;20.60;55.50
44723;DHT22;30451;48.638;10.624;2024-03-07T09:31:41;20.60;55.40
44723;DHT22;30451;48.638;10.624;2024-03-07T09:34:07;20.60;55.40
44723;DHT22;30451;48.638;10.624;2024-03-07T09:36:33;20.60;55.40
44723;DHT22;30451;48.638;10.624;2024-03-07T09:38:59;20.60;55.30
44723;DHT22;30451;48.638;10.624;2024-03-07T09:41:25;20.70;55.20
44723;DHT22;30451;48.638;10.624;2024-03-07T09:43:55;20.70;55.20
44723;DHT22;30451;48.638;10.624;2024-03-07T09:46:22;20.70;55.10
44723;DHT22;30451;48.638;10.624;2024-03-07T09:48:49;20.70;55.00
44723;DHT22;30451;48.638;10.624;2024-03-07T09:51:22;20.80;55.00
44723;DHT22;30451;48.638;10.624;2024-03-07T09:53:53;20.80;54.80
44723;DHT22;30451;48.638;10.624;2024-03-07T09:56:22;20.90;54.70
44723;DHT22;30451;48.638;10.624;2024-03-07T09:58:49;20.90;55.20
44723;DHT22;30451;48.638;10.624;2024-03-07T10:01:17;21.00;54.60
44723;DHT22;30451;48.638;10.624;2024-03-07T10:03:45;21.00;54.50
44723;DHT22;30451;48.638;10.624;2024-03-07T10:06:12;21.00;54.50
44723;DHT22;30451;48.638;10.624;2024-03-07T10:08:39;21.00;54.40
44723;DHT22;30451;48.638;10.624;2024-03-07T10:11:06;21.10;54.40
44723;DHT22;30451;48.638;10.624;2024-03-07T10:13:34;21.10;54.40
44723;DHT22;30451;48.638;10.624;2024-03-07T10:16:01;21.10;54.30
44723;DHT22;30451;48.638;10.624;2024-03-07T10:18:27;21.10;54.20
44723;DHT22;30451;48.638;10.624;2024-03-07T10:20:56;21.20;54.20
44723;DHT22;30451;48.638;10.624;2024-03-07T10:23:22;21.20;54.10
44723;DHT22;30451;48.638;10.624;2024-03-07T10:25:48;21.20;54.10
44723;DHT22;30451;48.638;10.624;2024-03-07T10:28:16;21.20;54.60
44723;DHT22;30451;48.638;10.624;2024-03-07T10:30:43;21.20;54.00
44723;DHT22;30451;48.638;10.624;2024-03-07T10:33:11;21.30;54.00
44723;DHT22;30451;48.638;10.624;2024-03-07T10:35:38;21.30;53.80
44723;DHT22;30451;48.638;10.624;2024-03-07T10:38:04;21.30;53.90
44723;DHT22;30451;48.638;10.624;2024-03-07T10:40:33;21.30;53.80
44723;DHT22;30451;48.638;10.624;2024-03-07T10:43:01;21.30;53.80
44723;DHT22;30451;48.638;10.624;2024-03-07T10:45:41;21.30;53.70
44723;DHT22;30451;48.638;10.624;2024-03-07T10:48:11;21.30;53.70
44723;DHT22;30451;48.638;10.624;2024-03-07T10:56:01;21.30;53.70
44723;DHT22;30451;48.638;10.624;2024-03-07T10:59:29;21.30;53.70
44723;DHT22;30451;48.638;10.624;2024-03-07T11:02:33;21.30;53.60
44723;DHT22;30451;48.638;10.624;2024-03-07T11:05:04;21.30;54.10
44723;DHT22;30451;48.638;10.624;2024-03-07T11:07:33;21.30;53.70
44723;DHT22;30451;48.638;10.624;2024-03-07T11:10:01;21.30;53.60
44723;DHT22;30451;48.638;10.624;2024-03-07T11:12:29;21.30;53.60
44723;DHT22;30451;48.638;10.624;2024-03-07T11:14:56;21.30;53.60
44723;DHT22;30451;48.638;10.624;2024-03-07T11:17:23;21.30;53.60
44723;DHT22;30451;48.638;10.624;2024-03-07T11:19:49;21.40;53.60
44723;DHT22;30451;48.638;10.624;2024-03-07T11:22:31;21.40;53.60
44723;DHT22;30451;48.638;10.624;2024-03-07T11:25:04;21.40;53.50
44723;DHT22;30451;48.638;10.624;2024-03-07T11:27:36;21.40;53.50
44723;DHT22;30451;48.638;10.624;2024-03-07T11:30:07;21.40;53.40
44723;DHT22;30451;48.638;10.624;2024-03-07T11:32:40;21.40;53.40
44723;DHT22;30451;48.638;10.624;2024-03-07T11:35:12;21.40;53.30
44723;DHT22;30451;48.638;10.624;2024-03-07T11:37:42;21.40;53.30
44723;DHT22;30451;48.638;10.624;2024-03-07T11:42:47;21.50;53.30
44723;DHT22;30451;48.638;10.624;2024-03-07T11:45:18;21.50;53.30
44723;DHT22;30451;48.638;10.624;2024-03-07T11:47:59;21.50;53.20
44723;DHT22;30451;48.638;10.624;2024-03-07T11:50:41;21.40;53.10
44723;DHT22;30451;48.638;10.624;2024-03-07T11:53:08;21.50;53.10
44723;DHT22;30451;48.638;10.624;2024-03-07T11:55:43;21.50;53.10
44723;DHT22;30451;48.638;10.624;2024-03-07T11:58:17;21.50;53.00
44723;DHT22;30451;48.638;10.624;2024-03-07T12:00:44;21.50;53.00
44723;DHT22;30451;48.638;10.624;2024-03-07T12:03:20;21.50;53.10
44723;DHT22;30451;48.638;10.624;2024-03-07T12:05:51;21.60;53.10
44723;DHT22;30451;48.638;10.624;2024-03-07T12:08:17;21.50;52.90
44723;DHT22;30451;48.638;10.624;2024-03-07T12:10:44;21.60;52.90
44723;DHT22;30451;48.638;10.624;2024-03-07T12:13:11;21.60;52.80
44723;DHT22;30451;48.638;10.624;2024-03-07T12:15:38;21.60;52.80
44723;DHT22;30451;48.638;10.624;2024-03-07T12:18:05;21.60;52.80
44723;DHT22;30451;48.638;10.624;2024-03-07T12:20:36;21.60;52.80
44723;DHT22;30451;48.638;10.624;2024-03-07T12:23:02;21.60;52.80
44723;DHT22;30451;48.638;10.624;2024-03-07T12:25:35;21.60;52.80
44723;DHT22;30451;48.638;10.624;2024-03-07T12:28:05;21.60;52.70
44723;DHT22;30451;48.638;10.624;2024-03-07T12:30:35;21.60;52.70
44723;DHT22;30451;48.638;10.624;2024-03-07T12:33:03;21.60;52.90
44723;DHT22;30451;48.638;10.624;2024-03-07T12:35:36;21.60;52.90
44723;DHT22;30451;48.638;10.624;2024-03-07T12:38:02;21.60;52.90
44723;DHT22;30451;48.638;10.624;2024-03-07T12:40:29;21.60;53.00
44723;DHT22;30451;48.638;10.624;2024-03-07T12:42:59;21.60;53.00
44723;DHT22;30451;48.638;10.624;2024-03-07T12:45:28;21.60;53.00
44723;DHT22;30451;48.638;10.624;2024-03-07T12:47:54;21.60;53.10
44723;DHT22;30451;48.638;10.624;2024-03-07T12:50:20;21.60;53.10
44723;DHT22;30451;48.638;10.624;2024-03-07T12:52:49;21.70;53.20
44723;DHT22;30451;48.638;10.624;2024-03-07T12:55:18;21.70;53.20
44723;DHT22;30451;48.638;10.624;2024-03-07T12:57:44;21.70;53.20
44723;DHT22;30451;48.638;10.624;2024-03-07T13:00:11;21.70;53.20
44723;DHT22;30451;48.638;10.624;2024-03-07T13:02:47;21.70;53.20
44723;DHT22;30451;48.638;10.624;2024-03-07T13:05:13;21.70;53.20
44723;DHT22;30451;48.638;10.624;2024-03-07T13:07:45;21.70;53.20
44723;DHT22;30451;48.638;10.624;2024-03-07T13:10:13;21.70;53.20
44723;DHT22;30451;48.638;10.624;2024-03-07T13:12:44;21.70;53.20
44723;DHT22;30451;48.638;10.624;2024-03-07T13:15:11;21.70;53.20
44723;DHT22;30451;48.638;10.624;2024-03-07T13:17:37;21.70;53.20
44723;DHT22;30451;48.638;10.624;2024-03-07T13:20:03;21.80;53.30
44723;DHT22;30451;48.638;10.624;2024-03-07T13:22:43;21.80;53.30
44723;DHT22;30451;48.638;10.624;2024-03-07T13:25:15;21.80;53.30
44723;DHT22;30451;48.638;10.624;2024-03-07T13:27:59;21.80;53.20
44723;DHT22;30451;48.638;10.624;2024-03-07T13:30:26;21.80;53.20
44723;DHT22;30451;48.638;10.624;2024-03-07T13:32:58;21.80;53.20
44723;DHT22;30451;48.638;10.624;2024-03-07T13:35:25;21.80;53.20
44723;DHT22;30451;48.638;10.624;2024-03-07T13:37:52;21.80;53.10
44723;DHT22;30451;48.638;10.624;2024-03-07T13:40:20;21.80;53.10
44723;DHT22;30451;48.638;10.624;2024-03-07T13:42:51;21.90;53.20
44723;DHT22;30451;48.638;10.624;2024-03-07T13:45:18;21.80;53.10
44723;DHT22;30451;48.638;10.624;2024-03-07T13:47:46;21.90;53.10
44723;DHT22;30451;48.638;10.624;2024-03-07T13:50:18;21.90;53.20
44723;DHT22;30451;48.638;10.624;2024-03-07T13:52:46;21.90;53.10
44723;DHT22;30451;48.638;10.624;2024-03-07T13:55:31;21.90;53.10
44723;DHT22;30451;48.638;10.624;2024-03-07T13:58:03;21.90;53.10
44723;DHT22;30451;48.638;10.624;2024-03-07T14:03:00;21.90;53.00
44723;DHT22;30451;48.638;10.624;2024-03-07T14:16:57;22.00;53.00
44723;DHT22;30451;48.638;10.624;2024-03-07T14:27:41;22.00;52.90
44723;DHT22;30451;48.638;10.624;2024-03-07T14:32:53;22.00;52.90
44723;DHT22;30451;48.638;10.624;2024-03-07T14:35:24;22.00;52.90
44723;DHT22;30451;48.638;10.624;2024-03-07T14:37:55;22.00;52.90
44723;DHT22;30451;48.638;10.624;2024-03-07T14:40:27;22.00;52.90
44723;DHT22;30451;48.638;10.624;2024-03-07T14:42:55;22.00;53.10
44723;DHT22;30451;48.638;10.624;2024-03-07T14:45:25;22.00;53.20
44723;DHT22;30451;48.638;10.624;2024-03-07T14:47:53;22.10;52.90
44723;DHT22;30451;48.638;10.624;2024-03-07T14:50:20;22.10;52.70
44723;DHT22;30451;48.638;10.624;2024-03-07T14:52:47;22.00;52.50
44723;DHT22;30451;48.638;10.624;2024-03-07T14:55:13;22.10;52.60
44723;DHT22;30451;48.638;10.624;2024-03-07T14:57:39;22.00;52.50
44723;DHT22;30451;48.638;10.624;2024-03-07T15:00:09;22.00;52.50
44723;DHT22;30451;48.638;10.624;2024-03-07T15:02:48;22.00;52.50
44723;DHT22;30451;48.638;10.624;2024-03-07T15:05:15;22.00;52.50
44723;DHT22;30451;48.638;10.624;2024-03-07T15:07:42;22.00;52.50
44723;DHT22;30451;48.638;10.624;2024-03-07T15:10:22;22.00;52.50
44723;DHT22;30451;48.638;10.624;2024-03-07T15:12:49;22.00;52.50
44723;DHT22;30451;48.638;10.624;2024-03-07T15:15:16;22.10;52.50
44723;DHT22;30451;48.638;10.624;2024-03-07T15:17:45;22.00;52.50
44723;DHT22;30451;48.638;10.624;2024-03-07T15:20:11;22.00;52.50
44723;DHT22;30451;48.638;10.624;2024-03-07T15:22:56;22.00;52.50
44723;DHT22;30451;48.638;10.624;2024-03-07T15:25:23;22.10;52.60
44723;DHT22;30451;48.638;10.624;2024-03-07T15:27:53;22.10;52.70
44723;DHT22;30451;48.638;10.624;2024-03-07T15:30:26;22.00;53.00
44723;DHT22;30451;48.638;10.624;2024-03-07T15:32:57;22.00;52.40
44723;DHT22;30451;48.638;10.624;2024-03-07T15:35:25;22.10;52.90
44723;DHT22;30451;48.638;10.624;2024-03-07T15:37:52;22.00;52.40
44723;DHT22;30451;48.638;10.624;2024-03-07T15:40:19;22.00;52.30
44723;DHT22;30451;48.638;10.624;2024-03-07T15:42:50;22.00;52.30
44723;DHT22;30451;48.638;10.624;2024-03-07T15:48:10;22.00;52.30
44723;DHT22;30451;48.638;10.624;2024-03-07T15:50:37;22.00;52.30
44723;DHT22;30451;48.638;10.624;2024-03-07T15:53:04;21.90;52.30
44723;DHT22;30451;48.638;10.624;2024-03-07T15:55:32;21.90;52.30